sensor_id;sensor_type;location;lat;lon;timestamp;pressure;altitude;pressure_sealevel;temperature;humidity
21086;BME280;34247;50.064;19.970;2023-04-06T00:00:23;99696.34;;;3.35;51.50
21086;BME280;34247;50.064;19.970;2023-04-06T00:01:27;99701.69;;;3.32;51.95
21086;BME280;34247;50.064;19.970;2023-04-06T00:02:31;99696.44;;;3.32;51.71
21086;BME280;34247;50.064;19.970;2023-04-06T00:03:38;99698.22;;;3.31;51.80
21086;BME280;34247;50.064;19.970;2023-04-06T00:04:42;99695.75;;;3.27;51.93
21086;BME280;34247;50.064;19.970;2023-04-06T00:05:47;99696.66;;;3.26;52.05
21086;BME280;34247;50.064;19.970;2023-04-06T00:06:52;99692.28;;;3.26;51.90
21086;BME280;34247;50.064;19.970;2023-04-06T00:07:58;99695.69;;;3.28;51.83
21086;BME280;34247;50.064;19.970;2023-04-06T00:09:04;99688.69;;;3.29;51.94
21086;BME280;34247;50.064;19.970;2023-04-06T00:10:13;99699.13;;;3.30;51.73
21086;BME280;34247;50.064;19.970;2023-04-06T00:11:18;99702.53;;;3.32;51.93
21086;BME280;34247;50.064;19.970;2023-04-06T00:12:22;99693.00;;;3.30;52.07
21086;BME280;34247;50.064;19.970;2023-04-06T00:13:30;99695.59;;;3.31;51.68
21086;BME280;34247;50.064;19.970;2023-04-06T00:14:34;99699.22;;;3.27;52.20
21086;BME280;34247;50.064;19.970;2023-04-06T00:15:38;99700.09;;;3.28;52.29
21086;BME280;34247;50.064;19.970;2023-04-06T00:16:42;99701.06;;;3.24;52.75
21086;BME280;34247;50.064;19.970;2023-04-06T00:17:46;99693.16;;;3.25;52.19
21086;BME280;34247;50.064;19.970;2023-04-06T00:18:50;99686.16;;;3.26;52.08
21086;BME280;34247;50.064;19.970;2023-04-06T00:19:56;99688.88;;;3.23;52.43
21086;BME280;34247;50.064;19.970;2023-04-06T00:21:03;99694.13;;;3.23;52.31
21086;BME280;34247;50.064;19.970;2023-04-06T00:22:11;99688.00;;;3.22;52.51
21086;BME280;34247;50.064;19.970;2023-04-06T00:23:17;99685.34;;;3.24;52.31
21086;BME280;34247;50.064;19.970;2023-04-06T00:24:24;99682.72;;;3.24;52.30
21086;BME280;34247;50.064;19.970;2023-04-06T00:25:28;99685.34;;;3.24;52.34
21086;BME280;34247;50.064;19.970;2023-04-06T00:26:31;99681.78;;;3.25;52.60
21086;BME280;34247;50.064;19.970;2023-04-06T00:27:36;99680.09;;;3.24;52.19
21086;BME280;34247;50.064;19.970;2023-04-06T00:28:40;99678.28;;;3.26;52.32
21086;BME280;34247;50.064;19.970;2023-04-06T00:29:46;99688.81;;;3.24;52.59
21086;BME280;34247;50.064;19.970;2023-04-06T00:30:53;99681.84;;;3.23;52.41
21086;BME280;34247;50.064;19.970;2023-04-06T00:31:59;99681.97;;;3.20;52.64
21086;BME280;34247;50.064;19.970;2023-04-06T00:33:04;99681.91;;;3.22;52.45
21086;BME280;34247;50.064;19.970;2023-04-06T00:34:13;99686.25;;;3.23;52.63
21086;BME280;34247;50.064;19.970;2023-04-06T00:35:19;99680.19;;;3.21;52.88
21086;BME280;34247;50.064;19.970;2023-04-06T00:36:24;99684.53;;;3.22;52.70
21086;BME280;34247;50.064;19.970;2023-04-06T00:37:28;99683.69;;;3.21;52.91
21086;BME280;34247;50.064;19.970;2023-04-06T00:38:35;99681.13;;;3.20;52.99
21086;BME280;34247;50.064;19.970;2023-04-06T00:39:46;99678.50;;;3.20;52.81
21086;BME280;34247;50.064;19.970;2023-04-06T00:40:50;99684.66;;;3.17;52.94
21086;BME280;34247;50.064;19.970;2023-04-06T00:41:55;99679.41;;;3.19;52.96
21086;BME280;34247;50.064;19.970;2023-04-06T00:43:03;99675.00;;;3.19;53.00
21086;BME280;34247;50.064;19.970;2023-04-06T00:44:15;99680.34;;;3.16;52.96
21086;BME280;34247;50.064;19.970;2023-04-06T00:45:22;99679.53;;;3.14;53.29
21086;BME280;34247;50.064;19.970;2023-04-06T00:46:26;99678.94;;;3.06;53.66
21086;BME280;34247;50.064;19.970;2023-04-06T00:47:33;99672.75;;;3.07;53.47
21086;BME280;34247;50.064;19.970;2023-04-06T00:48:37;99672.72;;;3.09;53.44
21086;BME280;34247;50.064;19.970;2023-04-06T00:49:43;99670.44;;;2.98;53.85
21086;BME280;34247;50.064;19.970;2023-04-06T00:50:50;99676.66;;;2.94;54.47
21086;BME280;34247;50.064;19.970;2023-04-06T00:51:54;99672.28;;;2.94;54.34
21086;BME280;34247;50.064;19.970;2023-04-06T00:52:59;99675.69;;;2.98;53.86
21086;BME280;34247;50.064;19.970;2023-04-06T00:54:06;99675.69;;;2.98;54.00
21086;BME280;34247;50.064;19.970;2023-04-06T00:55:17;99671.53;;;2.91;54.87
21086;BME280;34247;50.064;19.970;2023-04-06T00:56:21;99673.38;;;2.87;55.23
21086;BME280;34247;50.064;19.970;2023-04-06T00:57:27;99673.38;;;2.87;54.88
21086;BME280;34247;50.064;19.970;2023-04-06T00:58:30;99667.22;;;2.88;55.00
21086;BME280;34247;50.064;19.970;2023-04-06T00:59:35;99672.34;;;2.93;54.73
21086;BME280;34247;50.064;19.970;2023-04-06T01:00:42;99669.72;;;2.93;55.05
21086;BME280;34247;50.064;19.970;2023-04-06T01:01:48;99664.53;;;2.91;54.76
21086;BME280;34247;50.064;19.970;2023-04-06T01:02:53;99666.25;;;2.92;54.67
21086;BME280;34247;50.064;19.970;2023-04-06T01:03:56;99664.38;;;2.96;54.80
21086;BME280;34247;50.064;19.970;2023-04-06T01:05:02;99667.91;;;2.95;54.66
21086;BME280;34247;50.064;19.970;2023-04-06T01:06:10;99659.28;;;2.91;55.06
21086;BME280;34247;50.064;19.970;2023-04-06T01:07:14;99663.63;;;2.92;55.07
21086;BME280;34247;50.064;19.970;2023-04-06T01:08:20;99654.97;;;2.89;55.06
21086;BME280;34247;50.064;19.970;2023-04-06T01:09:30;99665.47;;;2.89;55.31
21086;BME280;34247;50.064;19.970;2023-04-06T01:10:34;99660.38;;;2.84;55.99
21086;BME280;34247;50.064;19.970;2023-04-06T01:11:41;99662.16;;;2.82;55.72
21086;BME280;34247;50.064;19.970;2023-04-06T01:12:50;99664.78;;;2.82;55.77
21086;BME280;34247;50.064;19.970;2023-04-06T01:13:55;99658.00;;;2.75;55.86
21086;BME280;34247;50.064;19.970;2023-04-06T01:14:59;99656.47;;;2.69;55.83
21086;BME280;34247;50.064;19.970;2023-04-06T01:16:03;99663.53;;;2.66;56.01
21086;BME280;34247;50.064;19.970;2023-04-06T01:17:15;99660.25;;;2.59;56.50
21086;BME280;34247;50.064;19.970;2023-04-06T01:18:29;99653.22;;;2.60;56.17
21086;BME280;34247;50.064;19.970;2023-04-06T01:19:33;99655.41;;;2.45;56.82
21086;BME280;34247;50.064;19.970;2023-04-06T01:20:37;99653.69;;;2.44;57.16
21086;BME280;34247;50.064;19.970;2023-04-06T01:21:44;99655.34;;;2.48;56.92
21086;BME280;34247;50.064;19.970;2023-04-06T01:22:48;99658.81;;;2.49;56.60
21086;BME280;34247;50.064;19.970;2023-04-06T01:23:52;99657.97;;;2.48;56.66
21086;BME280;34247;50.064;19.970;2023-04-06T01:24:59;99654.53;;;2.46;56.66
21086;BME280;34247;50.064;19.970;2023-04-06T01:26:03;99654.56;;;2.45;56.55
21086;BME280;34247;50.064;19.970;2023-04-06T01:27:16;99658.03;;;2.45;57.03
21086;BME280;34247;50.064;19.970;2023-04-06T01:28:25;99657.22;;;2.43;56.81
21086;BME280;34247;50.064;19.970;2023-04-06T01:29:29;99655.50;;;2.42;56.62
21086;BME280;34247;50.064;19.970;2023-04-06T01:30:36;99656.50;;;2.38;57.51
21086;BME280;34247;50.064;19.970;2023-04-06T01:31:40;99652.16;;;2.37;57.42
21086;BME280;34247;50.064;19.970;2023-04-06T01:32:44;99657.41;;;2.37;57.40
21086;BME280;34247;50.064;19.970;2023-04-06T01:33:54;99660.13;;;2.34;57.71
21086;BME280;34247;50.064;19.970;2023-04-06T01:34:58;99653.28;;;2.29;57.86
21086;BME280;34247;50.064;19.970;2023-04-06T01:36:03;99651.44;;;2.32;58.01
21086;BME280;34247;50.064;19.970;2023-04-06T01:37:14;99651.56;;;2.28;58.18
21086;BME280;34247;50.064;19.970;2023-04-06T01:38:20;99650.78;;;2.24;58.65
21086;BME280;34247;50.064;19.970;2023-04-06T01:39:26;99652.53;;;2.25;58.63
21086;BME280;34247;50.064;19.970;2023-04-06T01:40:31;99645.47;;;2.27;58.38
21086;BME280;34247;50.064;19.970;2023-04-06T01:41:35;99648.28;;;2.21;58.87
21086;BME280;34247;50.064;19.970;2023-04-06T01:42:39;99650.78;;;2.24;58.57
21086;BME280;34247;50.064;19.970;2023-04-06T01:43:46;99642.91;;;2.26;58.53
21086;BME280;34247;50.064;19.970;2023-04-06T01:44:50;99646.59;;;2.18;59.17
21086;BME280;34247;50.064;19.970;2023-04-06T01:45:54;99650.19;;;2.14;59.58
21086;BME280;34247;50.064;19.970;2023-04-06T01:47:00;99649.25;;;2.17;59.34
21086;BME280;34247;50.064;19.970;2023-04-06T01:48:04;99649.19;;;2.20;58.99
21086;BME280;34247;50.064;19.970;2023-04-06T01:49:16;99647.47;;;2.19;59.08
21086;BME280;34247;50.064;19.970;2023-04-06T01:50:20;99636.97;;;2.19;59.46
21086;BME280;34247;50.064;19.970;2023-04-06T01:51:24;99636.97;;;2.19;59.34
21086;BME280;34247;50.064;19.970;2023-04-06T01:52:29;99643.03;;;2.21;59.07
21086;BME280;34247;50.064;19.970;2023-04-06T01:53:36;99642.94;;;2.24;59.06
21086;BME280;34247;50.064;19.970;2023-04-06T01:54:40;99646.56;;;2.20;59.49
21086;BME280;34247;50.064;19.970;2023-04-06T01:55:44;99640.41;;;2.21;59.38
21086;BME280;34247;50.064;19.970;2023-04-06T01:56:48;99642.13;;;2.22;59.15
21086;BME280;34247;50.064;19.970;2023-04-06T01:57:54;99631.66;;;2.22;59.07
21086;BME280;34247;50.064;19.970;2023-04-06T01:58:58;99642.16;;;2.20;59.65
21086;BME280;34247;50.064;19.970;2023-04-06T02:00:02;99641.22;;;2.23;59.15
21086;BME280;34247;50.064;19.970;2023-04-06T02:01:11;99639.44;;;2.24;59.10
21086;BME280;34247;50.064;19.970;2023-04-06T02:02:15;99642.91;;;2.26;59.02
21086;BME280;34247;50.064;19.970;2023-04-06T02:03:19;99645.53;;;2.26;59.00
21086;BME280;34247;50.064;19.970;2023-04-06T02:04:23;99643.84;;;2.23;59.04
21086;BME280;34247;50.064;19.970;2023-04-06T02:05:32;99642.13;;;2.22;59.05
21086;BME280;34247;50.064;19.970;2023-04-06T02:06:41;99642.97;;;2.22;58.92
21086;BME280;34247;50.064;19.970;2023-04-06T02:07:45;99643.16;;;2.16;59.36
21086;BME280;34247;50.064;19.970;2023-04-06T02:08:49;99636.19;;;2.15;59.41
21086;BME280;34247;50.064;19.970;2023-04-06T02:09:55;99645.06;;;2.11;59.79
21086;BME280;34247;50.064;19.970;2023-04-06T02:11:03;99641.59;;;2.11;59.56
21086;BME280;34247;50.064;19.970;2023-04-06T02:12:13;99642.47;;;2.10;59.96
21086;BME280;34247;50.064;19.970;2023-04-06T02:13:17;99638.13;;;2.10;59.50
21086;BME280;34247;50.064;19.970;2023-04-06T02:14:24;99638.28;;;2.04;60.01
21086;BME280;34247;50.064;19.970;2023-04-06T02:15:28;99639.19;;;2.03;60.18
21086;BME280;34247;50.064;19.970;2023-04-06T02:16:32;99639.41;;;1.94;60.97
21086;BME280;34247;50.064;19.970;2023-04-06T02:17:36;99641.28;;;1.90;60.62
21086;BME280;34247;50.064;19.970;2023-04-06T02:18:40;99637.66;;;1.94;60.46
21086;BME280;34247;50.064;19.970;2023-04-06T02:19:44;99637.75;;;1.91;60.63
21086;BME280;34247;50.064;19.970;2023-04-06T02:20:48;99636.91;;;1.91;60.71
21086;BME280;34247;50.064;19.970;2023-04-06T02:21:52;99634.16;;;1.96;60.41
21086;BME280;34247;50.064;19.970;2023-04-06T02:22:58;99633.31;;;1.93;60.33
21086;BME280;34247;50.064;19.970;2023-04-06T02:24:02;99624.72;;;1.90;60.52
21086;BME280;34247;50.064;19.970;2023-04-06T02:25:11;99633.47;;;1.89;60.70
21086;BME280;34247;50.064;19.970;2023-04-06T02:26:15;99630.16;;;1.82;60.60
21086;BME280;34247;50.064;19.970;2023-04-06T02:27:19;99634.34;;;1.88;60.39
21086;BME280;34247;50.064;19.970;2023-04-06T02:28:23;99634.31;;;1.89;60.42
21086;BME280;34247;50.064;19.970;2023-04-06T02:29:27;99626.53;;;1.86;60.63
21086;BME280;34247;50.064;19.970;2023-04-06T02:30:31;99623.06;;;1.86;60.25
21086;BME280;34247;50.064;19.970;2023-04-06T02:31:36;99627.41;;;1.87;60.07
21086;BME280;34247;50.064;19.970;2023-04-06T02:32:41;99616.97;;;1.85;60.35
21086;BME280;34247;50.064;19.970;2023-04-06T02:33:45;99625.81;;;1.81;60.52
21086;BME280;34247;50.064;19.970;2023-04-06T02:34:49;99633.59;;;1.84;60.13
21086;BME280;34247;50.064;19.970;2023-04-06T02:35:53;99627.75;;;1.75;60.64
21086;BME280;34247;50.064;19.970;2023-04-06T02:37:01;99633.84;;;1.74;60.61
21086;BME280;34247;50.064;19.970;2023-04-06T02:38:10;99638.19;;;1.76;60.60
21086;BME280;34247;50.064;19.970;2023-04-06T02:39:15;99639.06;;;1.75;60.62
21086;BME280;34247;50.064;19.970;2023-04-06T02:40:19;99630.53;;;1.69;60.40
21086;BME280;34247;50.064;19.970;2023-04-06T02:41:24;99637.38;;;1.73;60.76
21086;BME280;34247;50.064;19.970;2023-04-06T02:42:30;99637.44;;;1.71;60.56
21086;BME280;34247;50.064;19.970;2023-04-06T02:43:34;99641.84;;;1.69;60.45
21086;BME280;34247;50.064;19.970;2023-04-06T02:44:39;99639.38;;;1.63;60.90
21086;BME280;34247;50.064;19.970;2023-04-06T02:45:43;99641.09;;;1.64;60.93
21086;BME280;34247;50.064;19.970;2023-04-06T02:46:47;99638.53;;;1.62;60.90
21086;BME280;34247;50.064;19.970;2023-04-06T02:47:50;99642.88;;;1.63;60.92
21086;BME280;34247;50.064;19.970;2023-04-06T02:48:54;99638.50;;;1.64;60.83
21086;BME280;34247;50.064;19.970;2023-04-06T02:49:58;99638.50;;;1.64;60.91
21086;BME280;34247;50.064;19.970;2023-04-06T02:51:03;99637.63;;;1.63;60.85
21086;BME280;34247;50.064;19.970;2023-04-06T02:52:13;99639.38;;;1.63;60.87
21086;BME280;34247;50.064;19.970;2023-04-06T02:53:17;99633.34;;;1.61;60.76
21086;BME280;34247;50.064;19.970;2023-04-06T02:54:26;99634.09;;;1.64;60.87
21086;BME280;34247;50.064;19.970;2023-04-06T02:55:31;99642.88;;;1.63;60.89
21086;BME280;34247;50.064;19.970;2023-04-06T02:56:43;99642.81;;;1.65;60.61
21086;BME280;34247;50.064;19.970;2023-04-06T02:57:47;99629.72;;;1.65;60.62
21086;BME280;34247;50.064;19.970;2023-04-06T02:58:52;99641.03;;;1.67;60.41
21086;BME280;34247;50.064;19.970;2023-04-06T02:59:56;99641.09;;;1.64;60.44
21086;BME280;34247;50.064;19.970;2023-04-06T03:01:00;99642.88;;;1.63;60.28
21086;BME280;34247;50.064;19.970;2023-04-06T03:02:13;99644.78;;;1.57;60.71
21086;BME280;34247;50.064;19.970;2023-04-06T03:03:17;99645.59;;;1.59;60.57
21086;BME280;34247;50.064;19.970;2023-04-06T03:04:21;99649.91;;;1.61;60.35
21086;BME280;34247;50.064;19.970;2023-04-06T03:05:26;99648.22;;;1.59;60.31
21086;BME280;34247;50.064;19.970;2023-04-06T03:06:30;99646.59;;;1.55;60.45
21086;BME280;34247;50.064;19.970;2023-04-06T03:07:34;99642.31;;;1.51;60.32
21086;BME280;34247;50.064;19.970;2023-04-06T03:08:38;99643.91;;;1.56;60.34
21086;BME280;34247;50.064;19.970;2023-04-06T03:09:41;99650.00;;;1.57;60.22
21086;BME280;34247;50.064;19.970;2023-04-06T03:10:45;99649.94;;;1.60;60.00
21086;BME280;34247;50.064;19.970;2023-04-06T03:11:50;99646.66;;;1.52;60.21
21086;BME280;34247;50.064;19.970;2023-04-06T03:12:53;99649.34;;;1.49;60.45
21086;BME280;34247;50.064;19.970;2023-04-06T03:13:58;99647.66;;;1.48;60.26
21086;BME280;34247;50.064;19.970;2023-04-06T03:15:03;99649.44;;;1.46;60.42
21086;BME280;34247;50.064;19.970;2023-04-06T03:16:11;99649.34;;;1.49;60.40
21086;BME280;34247;50.064;19.970;2023-04-06T03:17:15;99651.00;;;1.53;60.07
21086;BME280;34247;50.064;19.970;2023-04-06T03:18:24;99651.00;;;1.53;60.20
21086;BME280;34247;50.064;19.970;2023-04-06T03:19:28;99651.81;;;1.55;60.03
21086;BME280;34247;50.064;19.970;2023-04-06T03:20:32;99644.88;;;1.54;59.97
21086;BME280;34247;50.064;19.970;2023-04-06T03:21:36;99640.53;;;1.53;60.11
21086;BME280;34247;50.064;19.970;2023-04-06T03:22:40;99638.75;;;1.55;60.21
21086;BME280;34247;50.064;19.970;2023-04-06T03:23:44;99637.78;;;1.57;59.75
21086;BME280;34247;50.064;19.970;2023-04-06T03:24:49;99641.16;;;1.62;59.67
21086;BME280;34247;50.064;19.970;2023-04-06T03:25:53;99642.81;;;1.65;59.85
21086;BME280;34247;50.064;19.970;2023-04-06T03:26:57;99645.38;;;1.68;59.49
21086;BME280;34247;50.064;19.970;2023-04-06T03:28:01;99648.91;;;1.67;59.41
21086;BME280;34247;50.064;19.970;2023-04-06T03:29:08;99650.66;;;1.65;59.74
21086;BME280;34247;50.064;19.970;2023-04-06T03:30:13;99646.28;;;1.67;59.69
21086;BME280;34247;50.064;19.970;2023-04-06T03:31:17;99645.38;;;1.68;59.73
21086;BME280;34247;50.064;19.970;2023-04-06T03:32:20;99652.38;;;1.66;59.78
21086;BME280;34247;50.064;19.970;2023-04-06T03:33:25;99647.94;;;1.70;59.48
21086;BME280;34247;50.064;19.970;2023-04-06T03:34:30;99650.66;;;1.65;59.89
21086;BME280;34247;50.064;19.970;2023-04-06T03:35:34;99645.53;;;1.62;59.99
21086;BME280;34247;50.064;19.970;2023-04-06T03:36:40;99649.75;;;1.66;59.77
21086;BME280;34247;50.064;19.970;2023-04-06T03:37:44;99652.53;;;1.61;59.94
21086;BME280;34247;50.064;19.970;2023-04-06T03:38:48;99647.16;;;1.66;59.96
21086;BME280;34247;50.064;19.970;2023-04-06T03:39:53;99651.47;;;1.69;59.71
21086;BME280;34247;50.064;19.970;2023-04-06T03:40:59;99658.41;;;1.70;59.59
21086;BME280;34247;50.064;19.970;2023-04-06T03:42:03;99660.06;;;1.72;59.46
21086;BME280;34247;50.064;19.970;2023-04-06T03:43:12;99660.94;;;1.73;59.69
21086;BME280;34247;50.064;19.970;2023-04-06T03:44:17;99655.69;;;1.74;59.57
21086;BME280;34247;50.064;19.970;2023-04-06T03:45:21;99658.31;;;1.74;59.59
21086;BME280;34247;50.064;19.970;2023-04-06T03:46:25;99659.13;;;1.76;59.42
21086;BME280;34247;50.064;19.970;2023-04-06T03:47:31;99661.69;;;1.78;59.48
21086;BME280;34247;50.064;19.970;2023-04-06T03:48:34;99655.63;;;1.76;59.30
21086;BME280;34247;50.064;19.970;2023-04-06T03:49:40;99662.69;;;1.72;59.52
21086;BME280;34247;50.064;19.970;2023-04-06T03:50:43;99660.06;;;1.72;59.52
21086;BME280;34247;50.064;19.970;2023-04-06T03:51:48;99654.13;;;1.67;60.03
21086;BME280;34247;50.064;19.970;2023-04-06T03:52:52;99651.41;;;1.70;59.65
21086;BME280;34247;50.064;19.970;2023-04-06T03:54:12;99654.84;;;1.72;59.78
21086;BME280;34247;50.064;19.970;2023-04-06T03:55:19;99655.75;;;1.71;59.41
21086;BME280;34247;50.064;19.970;2023-04-06T03:56:23;99653.22;;;1.68;59.33
21086;BME280;34247;50.064;19.970;2023-04-06T03:57:31;99649.69;;;1.69;59.58
21086;BME280;34247;50.064;19.970;2023-04-06T03:58:35;99648.75;;;1.72;59.47
21086;BME280;34247;50.064;19.970;2023-04-06T03:59:39;99648.75;;;1.72;59.48
21086;BME280;34247;50.064;19.970;2023-04-06T04:00:43;99652.22;;;1.72;59.65
21086;BME280;34247;50.064;19.970;2023-04-06T04:01:46;99644.31;;;1.74;59.42
21086;BME280;34247;50.064;19.970;2023-04-06T04:02:50;99652.38;;;1.68;59.23
21086;BME280;34247;50.064;19.970;2023-04-06T04:03:54;99652.16;;;1.75;59.34
21086;BME280;34247;50.064;19.970;2023-04-06T04:05:01;99648.69;;;1.73;59.22
21086;BME280;34247;50.064;19.970;2023-04-06T04:06:05;99655.63;;;1.76;59.20
21086;BME280;34247;50.064;19.970;2023-04-06T04:07:13;99643.56;;;1.70;59.11
21086;BME280;34247;50.064;19.970;2023-04-06T04:08:17;99648.69;;;1.73;59.49
21086;BME280;34247;50.064;19.970;2023-04-06T04:09:21;99661.03;;;1.70;59.49
21086;BME280;34247;50.064;19.970;2023-04-06T04:10:25;99654.94;;;1.69;59.51
21086;BME280;34247;50.064;19.970;2023-04-06T04:11:31;99657.50;;;1.71;59.57
21086;BME280;34247;50.064;19.970;2023-04-06T04:12:36;99655.75;;;1.71;59.40
21086;BME280;34247;50.064;19.970;2023-04-06T04:13:42;99662.63;;;1.75;59.38
21086;BME280;34247;50.064;19.970;2023-04-06T04:14:48;99654.78;;;1.74;59.49
21086;BME280;34247;50.064;19.970;2023-04-06T04:15:52;99656.69;;;1.69;59.40
21086;BME280;34247;50.064;19.970;2023-04-06T04:16:57;99655.00;;;1.66;59.81
21086;BME280;34247;50.064;19.970;2023-04-06T04:18:01;99658.38;;;1.71;59.52
21086;BME280;34247;50.064;19.970;2023-04-06T04:19:10;99651.31;;;1.73;59.47
21086;BME280;34247;50.064;19.970;2023-04-06T04:20:15;99658.41;;;1.70;59.49
21086;BME280;34247;50.064;19.970;2023-04-06T04:21:20;99649.59;;;1.72;59.31
21086;BME280;34247;50.064;19.970;2023-04-06T04:22:24;99658.38;;;1.71;59.48
21086;BME280;34247;50.064;19.970;2023-04-06T04:23:28;99653.09;;;1.73;59.44
21086;BME280;34247;50.064;19.970;2023-04-06T04:24:39;99653.97;;;1.72;59.37
21086;BME280;34247;50.064;19.970;2023-04-06T04:26:02;99652.16;;;1.75;59.32
21086;BME280;34247;50.064;19.970;2023-04-06T04:28:14;99654.78;;;1.74;59.50
21086;BME280;34247;50.064;19.970;2023-04-06T04:29:41;99650.59;;;1.68;59.57
21086;BME280;34247;50.064;19.970;2023-04-06T04:31:14;99654.03;;;1.70;59.73
21086;BME280;34247;50.064;19.970;2023-04-06T04:32:37;99651.31;;;1.75;59.56
21086;BME280;34247;50.064;19.970;2023-04-06T04:33:46;99647.00;;;1.72;59.95
21086;BME280;34247;50.064;19.970;2023-04-06T04:34:58;99647.84;;;1.74;59.63
21086;BME280;34247;50.064;19.970;2023-04-06T04:36:15;99652.22;;;1.72;60.05
21086;BME280;34247;50.064;19.970;2023-04-06T04:37:56;99651.91;;;1.84;59.48
21086;BME280;34247;50.064;19.970;2023-04-06T04:39:04;99653.63;;;1.85;59.22
21086;BME280;34247;50.064;19.970;2023-04-06T04:40:22;99645.72;;;1.87;59.32
21086;BME280;34247;50.064;19.970;2023-04-06T04:41:26;99648.22;;;1.91;59.29
21086;BME280;34247;50.064;19.970;2023-04-06T04:43:05;99649.19;;;1.87;59.56
21086;BME280;34247;50.064;19.970;2023-04-06T04:44:30;99643.94;;;1.89;59.22
21086;BME280;34247;50.064;19.970;2023-04-06T04:46:24;99647.31;;;1.92;59.49
21086;BME280;34247;50.064;19.970;2023-04-06T04:47:34;99642.09;;;1.92;59.37
21086;BME280;34247;50.064;19.970;2023-04-06T04:48:51;99639.41;;;1.96;59.24
21086;BME280;34247;50.064;19.970;2023-04-06T04:50:02;99635.88;;;1.97;58.89
21086;BME280;34247;50.064;19.970;2023-04-06T04:51:21;99645.13;;;2.08;58.72
21086;BME280;34247;50.064;19.970;2023-04-06T04:52:55;99636.41;;;2.08;58.73
21086;BME280;34247;50.064;19.970;2023-04-06T04:54:15;99640.69;;;2.12;58.66
21086;BME280;34247;50.064;19.970;2023-04-06T04:55:26;99646.69;;;2.15;58.34
21086;BME280;34247;50.064;19.970;2023-04-06T04:56:48;99643.13;;;2.18;58.47
21086;BME280;34247;50.064;19.970;2023-04-06T04:58:14;99643.94;;;2.20;58.43
21086;BME280;34247;50.064;19.970;2023-04-06T04:59:26;99643.09;;;2.19;58.46
21086;BME280;34247;50.064;19.970;2023-04-06T05:00:40;99638.56;;;2.25;58.21
21086;BME280;34247;50.064;19.970;2023-04-06T05:01:45;99642.91;;;2.26;58.38
21086;BME280;34247;50.064;19.970;2023-04-06T05:03:09;99641.03;;;2.29;58.29
21086;BME280;34247;50.064;19.970;2023-04-06T05:04:35;99639.22;;;2.33;58.00
21086;BME280;34247;50.064;19.970;2023-04-06T05:06:04;99638.25;;;2.35;57.76
21086;BME280;34247;50.064;19.970;2023-04-06T05:07:22;99647.78;;;2.38;57.53
21086;BME280;34247;50.064;19.970;2023-04-06T05:08:44;99641.69;;;2.37;57.60
21086;BME280;34247;50.064;19.970;2023-04-06T05:09:55;99643.38;;;2.38;57.74
21086;BME280;34247;50.064;19.970;2023-04-06T05:11:20;99651.25;;;2.38;57.87
21086;BME280;34247;50.064;19.970;2023-04-06T05:13:13;99639.97;;;2.36;57.82
21086;BME280;34247;50.064;19.970;2023-04-06T05:14:23;99638.06;;;2.41;57.79
21086;BME280;34247;50.064;19.970;2023-04-06T05:15:28;99635.41;;;2.43;57.98
21086;BME280;34247;50.064;19.970;2023-04-06T05:17:03;99642.97;;;2.52;57.34
21086;BME280;34247;50.064;19.970;2023-04-06T05:18:17;99637.63;;;2.57;57.54
21086;BME280;34247;50.064;19.970;2023-04-06T05:19:35;99645.25;;;2.64;57.21
21086;BME280;34247;50.064;19.970;2023-04-06T05:20:42;99637.25;;;2.69;56.97
21086;BME280;34247;50.064;19.970;2023-04-06T05:21:49;99626.78;;;2.69;57.25
21086;BME280;34247;50.064;19.970;2023-04-06T05:23:33;99638.72;;;2.78;57.01
21086;BME280;34247;50.064;19.970;2023-04-06T05:24:56;99635.25;;;2.77;56.91
21086;BME280;34247;50.064;19.970;2023-04-06T05:26:23;99636.84;;;2.81;56.83
21086;BME280;34247;50.064;19.970;2023-04-06T05:27:47;99638.38;;;2.88;56.56
21086;BME280;34247;50.064;19.970;2023-04-06T05:29:19;99636.78;;;2.84;56.58
21086;BME280;34247;50.064;19.970;2023-04-06T05:30:52;99634.84;;;2.89;56.56
21086;BME280;34247;50.064;19.970;2023-04-06T05:32:01;99639.09;;;2.93;56.44
21086;BME280;34247;50.064;19.970;2023-04-06T05:33:36;99641.53;;;2.99;56.02
21086;BME280;34247;50.064;19.970;2023-04-06T05:34:45;99634.47;;;3.01;56.40
21086;BME280;34247;50.064;19.970;2023-04-06T05:35:49;99634.28;;;3.08;56.08
21086;BME280;34247;50.064;19.970;2023-04-06T05:36:58;99632.44;;;3.10;56.10
21086;BME280;34247;50.064;19.970;2023-04-06T05:38:15;99633.28;;;3.12;55.80
21086;BME280;34247;50.064;19.970;2023-04-06T05:39:19;99634.22;;;3.09;55.73
21086;BME280;34247;50.064;19.970;2023-04-06T05:40:24;99630.66;;;3.12;55.55
21086;BME280;34247;50.064;19.970;2023-04-06T05:41:29;99623.41;;;3.20;55.33
21086;BME280;34247;50.064;19.970;2023-04-06T05:42:42;99624.38;;;3.16;55.43
21086;BME280;34247;50.064;19.970;2023-04-06T05:43:51;99633.78;;;3.23;55.58
21086;BME280;34247;50.064;19.970;2023-04-06T05:44:57;99628.44;;;3.26;55.16
21086;BME280;34247;50.064;19.970;2023-04-06T05:46:02;99629.63;;;3.16;54.98
21086;BME280;34247;50.064;19.970;2023-04-06T05:47:17;99625.31;;;3.15;54.88
21086;BME280;34247;50.064;19.970;2023-04-06T05:48:21;99625.91;;;3.23;54.95
21086;BME280;34247;50.064;19.970;2023-04-06T05:49:27;99623.09;;;3.29;54.69
21086;BME280;34247;50.064;19.970;2023-04-06T05:50:35;99621.25;;;3.31;54.83
21086;BME280;34247;50.064;19.970;2023-04-06T05:51:59;99630.75;;;3.35;54.71
21086;BME280;34247;50.064;19.970;2023-04-06T05:53:18;99629.91;;;3.35;54.76
21086;BME280;34247;50.064;19.970;2023-04-06T05:54:39;99626.41;;;3.34;54.76
21086;BME280;34247;50.064;19.970;2023-04-06T05:55:55;99628.03;;;3.38;54.37
21086;BME280;34247;50.064;19.970;2023-04-06T05:57:02;99635.81;;;3.41;54.23
21086;BME280;34247;50.064;19.970;2023-04-06T05:58:21;99632.94;;;3.47;54.11
21086;BME280;34247;50.064;19.970;2023-04-06T05:59:30;99629.25;;;3.53;54.27
21086;BME280;34247;50.064;19.970;2023-04-06T06:00:35;99631.09;;;3.51;53.83
21086;BME280;34247;50.064;19.970;2023-04-06T06:01:55;99624.06;;;3.51;53.53
21086;BME280;34247;50.064;19.970;2023-04-06T06:03:12;99635.53;;;3.49;53.68